sensor_id;sensor_type;location;lat;lon;timestamp;P1;durP1;ratioP1;P2;durP2;ratioP2
17133;SDS011;8682;52.120;5.252;2022-09-09T00:00:14;119.07;;;107.37;;
17133;SDS011;8682;52.120;5.252;2022-09-09T00:02:43;117.67;;;107.43;;
17133;SDS011;8682;52.120;5.252;2022-09-09T00:05:17;130.17;;;118.73;;
17133;SDS011;8682;52.120;5.252;2022-09-09T00:07:52;125.17;;;114.03;;
17133;SDS011;8682;52.120;5.252;2022-09-09T00:10:26;129.93;;;118.20;;
17133;SDS011;8682;52.120;5.252;2022-09-09T00:12:57;122.67;;;110.57;;
17133;SDS011;8682;52.120;5.252;2022-09-09T00:15:35;117.27;;;106.20;;
17133;SDS011;8682;52.120;5.252;2022-09-09T00:18:09;116.97;;;105.77;;
17133;SDS011;8682;52.120;5.252;2022-09-09T00:20:43;123.23;;;111.90;;
17133;SDS011;8682;52.120;5.252;2022-09-09T00:23:18;120.70;;;108.30;;
17133;SDS011;8682;52.120;5.252;2022-09-09T00:25:54;118.27;;;107.30;;
17133;SDS011;8682;52.120;5.252;2022-09-09T00:28:28;125.63;;;113.60;;
17133;SDS011;8682;52.120;5.252;2022-09-09T00:30:59;119.93;;;108.33;;
17133;SDS011;8682;52.120;5.252;2022-09-09T00:33:36;126.63;;;114.40;;
17133;SDS011;8682;52.120;5.252;2022-09-09T00:36:07;128.70;;;116.77;;
17133;SDS011;8682;52.120;5.252;2022-09-09T00:38:40;125.87;;;114.17;;
17133;SDS011;8682;52.120;5.252;2022-09-09T00:41:13;118.70;;;107.33;;
17133;SDS011;8682;52.120;5.252;2022-09-09T00:43:46;112.97;;;101.43;;
17133;SDS011;8682;52.120;5.252;2022-09-09T00:46:26;105.40;;;94.73;;
17133;SDS011;8682;52.120;5.252;2022-09-09T00:49:11;122.80;;;110.20;;
17133;SDS011;8682;52.120;5.252;2022-09-09T00:51:46;107.33;;;96.50;;
17133;SDS011;8682;52.120;5.252;2022-09-09T00:54:28;112.00;;;101.63;;
17133;SDS011;8682;52.120;5.252;2022-09-09T00:57:07;121.37;;;108.13;;
17133;SDS011;8682;52.120;5.252;2022-09-09T00:59:46;110.43;;;99.43;;
17133;SDS011;8682;52.120;5.252;2022-09-09T01:02:18;129.17;;;116.23;;
17133;SDS011;8682;52.120;5.252;2022-09-09T01:04:54;124.10;;;111.27;;
17133;SDS011;8682;52.120;5.252;2022-09-09T01:07:24;105.70;;;95.63;;
17133;SDS011;8682;52.120;5.252;2022-09-09T01:09:52;111.53;;;99.90;;
17133;SDS011;8682;52.120;5.252;2022-09-09T01:12:28;111.37;;;100.27;;
17133;SDS011;8682;52.120;5.252;2022-09-09T01:15:08;102.43;;;92.00;;
17133;SDS011;8682;52.120;5.252;2022-09-09T01:17:39;110.13;;;99.60;;
17133;SDS011;8682;52.120;5.252;2022-09-09T01:20:16;110.60;;;99.33;;
17133;SDS011;8682;52.120;5.252;2022-09-09T01:22:50;112.17;;;100.57;;
17133;SDS011;8682;52.120;5.252;2022-09-09T01:25:56;120.03;;;107.80;;
17133;SDS011;8682;52.120;5.252;2022-09-09T01:28:47;106.77;;;95.73;;
17133;SDS011;8682;52.120;5.252;2022-09-09T01:31:18;109.23;;;97.43;;
17133;SDS011;8682;52.120;5.252;2022-09-09T01:33:47;105.90;;;94.47;;
17133;SDS011;8682;52.120;5.252;2022-09-09T01:36:15;101.17;;;90.90;;
17133;SDS011;8682;52.120;5.252;2022-09-09T01:38:47;110.43;;;99.23;;
17133;SDS011;8682;52.120;5.252;2022-09-09T01:41:16;116.33;;;104.00;;
17133;SDS011;8682;52.120;5.252;2022-09-09T01:43:42;107.17;;;94.00;;
17133;SDS011;8682;52.120;5.252;2022-09-09T01:46:09;107.00;;;95.73;;
17133;SDS011;8682;52.120;5.252;2022-09-09T01:48:38;102.67;;;91.73;;
17133;SDS011;8682;52.120;5.252;2022-09-09T01:51:07;100.53;;;90.13;;
17133;SDS011;8682;52.120;5.252;2022-09-09T01:53:34;108.97;;;97.90;;
17133;SDS011;8682;52.120;5.252;2022-09-09T01:56:04;111.17;;;99.17;;
17133;SDS011;8682;52.120;5.252;2022-09-09T01:58:43;103.40;;;92.50;;
17133;SDS011;8682;52.120;5.252;2022-09-09T02:01:22;103.57;;;88.57;;
17133;SDS011;8682;52.120;5.252;2022-09-09T02:03:57;105.30;;;93.70;;
17133;SDS011;8682;52.120;5.252;2022-09-09T02:06:27;108.33;;;91.67;;
17133;SDS011;8682;52.120;5.252;2022-09-09T02:08:57;92.73;;;82.17;;
17133;SDS011;8682;52.120;5.252;2022-09-09T02:11:28;111.00;;;95.10;;
17133;SDS011;8682;52.120;5.252;2022-09-09T02:13:59;120.43;;;107.10;;
17133;SDS011;8682;52.120;5.252;2022-09-09T02:16:30;103.83;;;92.80;;
17133;SDS011;8682;52.120;5.252;2022-09-09T02:19:01;97.73;;;82.80;;
17133;SDS011;8682;52.120;5.252;2022-09-09T02:21:33;105.20;;;92.47;;
17133;SDS011;8682;52.120;5.252;2022-09-09T02:24:02;94.30;;;83.70;;
17133;SDS011;8682;52.120;5.252;2022-09-09T02:26:33;115.07;;;94.47;;
17133;SDS011;8682;52.120;5.252;2022-09-09T02:29:05;111.73;;;95.53;;
17133;SDS011;8682;52.120;5.252;2022-09-09T02:31:35;109.93;;;97.87;;
17133;SDS011;8682;52.120;5.252;2022-09-09T02:34:04;108.87;;;96.80;;
17133;SDS011;8682;52.120;5.252;2022-09-09T02:36:35;109.73;;;93.83;;
17133;SDS011;8682;52.120;5.252;2022-09-09T02:39:04;111.57;;;99.30;;
17133;SDS011;8682;52.120;5.252;2022-09-09T02:41:34;124.90;;;97.33;;
17133;SDS011;8682;52.120;5.252;2022-09-09T02:44:08;112.37;;;87.37;;
17133;SDS011;8682;52.120;5.252;2022-09-09T02:46:39;113.20;;;96.20;;
17133;SDS011;8682;52.120;5.252;2022-09-09T02:49:21;118.90;;;93.03;;
17133;SDS011;8682;52.120;5.252;2022-09-09T02:51:57;103.97;;;92.20;;
17133;SDS011;8682;52.120;5.252;2022-09-09T02:54:27;108.67;;;97.00;;
17133;SDS011;8682;52.120;5.252;2022-09-09T02:56:55;110.37;;;95.10;;
17133;SDS011;8682;52.120;5.252;2022-09-09T02:59:30;112.13;;;95.23;;
17133;SDS011;8682;52.120;5.252;2022-09-09T03:01:58;100.00;;;85.03;;
17133;SDS011;8682;52.120;5.252;2022-09-09T03:04:26;106.03;;;89.53;;
17133;SDS011;8682;52.120;5.252;2022-09-09T03:06:53;104.80;;;91.40;;
17133;SDS011;8682;52.120;5.252;2022-09-09T03:09:19;108.33;;;91.30;;
17133;SDS011;8682;52.120;5.252;2022-09-09T03:11:46;104.97;;;82.87;;
17133;SDS011;8682;52.120;5.252;2022-09-09T03:14:14;108.10;;;86.80;;
17133;SDS011;8682;52.120;5.252;2022-09-09T03:16:42;109.10;;;90.30;;
17133;SDS011;8682;52.120;5.252;2022-09-09T03:19:09;104.00;;;83.27;;
17133;SDS011;8682;52.120;5.252;2022-09-09T03:21:36;111.37;;;93.00;;
17133;SDS011;8682;52.120;5.252;2022-09-09T03:24:03;107.73;;;89.23;;
17133;SDS011;8682;52.120;5.252;2022-09-09T03:26:31;105.63;;;87.87;;
17133;SDS011;8682;52.120;5.252;2022-09-09T03:28:58;113.40;;;95.93;;
17133;SDS011;8682;52.120;5.252;2022-09-09T03:31:26;120.43;;;91.67;;
17133;SDS011;8682;52.120;5.252;2022-09-09T03:33:56;112.83;;;97.03;;
17133;SDS011;8682;52.120;5.252;2022-09-09T03:36:23;111.37;;;86.00;;
17133;SDS011;8682;52.120;5.252;2022-09-09T03:38:51;98.70;;;84.33;;
17133;SDS011;8682;52.120;5.252;2022-09-09T03:41:19;108.90;;;86.93;;
17133;SDS011;8682;52.120;5.252;2022-09-09T03:43:48;110.10;;;89.80;;
17133;SDS011;8682;52.120;5.252;2022-09-09T03:46:15;113.83;;;87.07;;
17133;SDS011;8682;52.120;5.252;2022-09-09T03:48:42;103.10;;;87.27;;
17133;SDS011;8682;52.120;5.252;2022-09-09T03:51:10;92.80;;;75.07;;
17133;SDS011;8682;52.120;5.252;2022-09-09T03:53:37;98.10;;;72.40;;
17133;SDS011;8682;52.120;5.252;2022-09-09T03:56:05;76.47;;;63.60;;
17133;SDS011;8682;52.120;5.252;2022-09-09T03:58:32;87.07;;;66.33;;
17133;SDS011;8682;52.120;5.252;2022-09-09T04:01:01;88.17;;;58.50;;
17133;SDS011;8682;52.120;5.252;2022-09-09T04:03:29;88.27;;;67.37;;
17133;SDS011;8682;52.120;5.252;2022-09-09T04:05:57;100.43;;;87.57;;
17133;SDS011;8682;52.120;5.252;2022-09-09T04:08:28;78.57;;;66.13;;
17133;SDS011;8682;52.120;5.252;2022-09-09T04:10:56;93.77;;;68.33;;
17133;SDS011;8682;52.120;5.252;2022-09-09T04:13:23;92.63;;;76.73;;
17133;SDS011;8682;52.120;5.252;2022-09-09T04:15:51;124.63;;;91.57;;
17133;SDS011;8682;52.120;5.252;2022-09-09T04:18:19;106.87;;;88.70;;
17133;SDS011;8682;52.120;5.252;2022-09-09T04:20:47;121.57;;;102.77;;
17133;SDS011;8682;52.120;5.252;2022-09-09T04:23:15;112.83;;;89.13;;
17133;SDS011;8682;52.120;5.252;2022-09-09T04:25:45;129.13;;;98.33;;
17133;SDS011;8682;52.120;5.252;2022-09-09T04:28:12;113.63;;;101.37;;
17133;SDS011;8682;52.120;5.252;2022-09-09T04:30:40;112.17;;;97.33;;
17133;SDS011;8682;52.120;5.252;2022-09-09T04:33:06;99.53;;;84.00;;
17133;SDS011;8682;52.120;5.252;2022-09-09T04:35:34;115.90;;;95.23;;
17133;SDS011;8682;52.120;5.252;2022-09-09T04:38:01;116.83;;;84.87;;
17133;SDS011;8682;52.120;5.252;2022-09-09T04:40:28;84.37;;;72.40;;
17133;SDS011;8682;52.120;5.252;2022-09-09T04:42:58;120.70;;;104.53;;
17133;SDS011;8682;52.120;5.252;2022-09-09T04:45:25;112.63;;;97.13;;
17133;SDS011;8682;52.120;5.252;2022-09-09T04:47:52;125.83;;;95.97;;
17133;SDS011;8682;52.120;5.252;2022-09-09T04:50:20;115.70;;;103.50;;
17133;SDS011;8682;52.120;5.252;2022-09-09T04:52:46;116.00;;;92.60;;
17133;SDS011;8682;52.120;5.252;2022-09-09T04:55:13;119.70;;;98.63;;
17133;SDS011;8682;52.120;5.252;2022-09-09T04:57:40;101.77;;;87.10;;
17133;SDS011;8682;52.120;5.252;2022-09-09T05:00:09;81.70;;;70.97;;
17133;SDS011;8682;52.120;5.252;2022-09-09T05:02:38;114.17;;;101.33;;
17133;SDS011;8682;52.120;5.252;2022-09-09T05:05:07;124.73;;;111.90;;
17133;SDS011;8682;52.120;5.252;2022-09-09T05:07:36;113.80;;;101.77;;
17133;SDS011;8682;52.120;5.252;2022-09-09T05:10:03;120.70;;;105.83;;
17133;SDS011;8682;52.120;5.252;2022-09-09T05:12:30;126.93;;;107.77;;
17133;SDS011;8682;52.120;5.252;2022-09-09T05:14:58;106.07;;;89.83;;
17133;SDS011;8682;52.120;5.252;2022-09-09T05:17:26;109.90;;;93.47;;
17133;SDS011;8682;52.120;5.252;2022-09-09T05:19:52;90.80;;;77.27;;
17133;SDS011;8682;52.120;5.252;2022-09-09T05:22:19;119.30;;;106.60;;
17133;SDS011;8682;52.120;5.252;2022-09-09T05:24:48;111.63;;;99.47;;
17133;SDS011;8682;52.120;5.252;2022-09-09T05:27:15;120.10;;;107.30;;
17133;SDS011;8682;52.120;5.252;2022-09-09T05:29:43;119.57;;;103.90;;
17133;SDS011;8682;52.120;5.252;2022-09-09T05:32:10;125.00;;;106.13;;
17133;SDS011;8682;52.120;5.252;2022-09-09T05:34:38;106.60;;;90.03;;
17133;SDS011;8682;52.120;5.252;2022-09-09T05:37:04;116.23;;;91.73;;
17133;SDS011;8682;52.120;5.252;2022-09-09T05:39:32;113.17;;;87.43;;
17133;SDS011;8682;52.120;5.252;2022-09-09T05:42:01;115.23;;;103.30;;
17133;SDS011;8682;52.120;5.252;2022-09-09T05:44:29;87.30;;;68.83;;
17133;SDS011;8682;52.120;5.252;2022-09-09T05:46:56;105.67;;;89.60;;
17133;SDS011;8682;52.120;5.252;2022-09-09T05:49:23;88.83;;;75.20;;
17133;SDS011;8682;52.120;5.252;2022-09-09T05:51:52;113.93;;;99.83;;
17133;SDS011;8682;52.120;5.252;2022-09-09T05:54:19;122.47;;;109.60;;
17133;SDS011;8682;52.120;5.252;2022-09-09T05:56:45;110.07;;;98.27;;
17133;SDS011;8682;52.120;5.252;2022-09-09T05:59:14;113.60;;;99.70;;
17133;SDS011;8682;52.120;5.252;2022-09-09T06:01:41;119.70;;;106.70;;
17133;SDS011;8682;52.120;5.252;2022-09-09T06:04:08;122.83;;;109.80;;
17133;SDS011;8682;52.120;5.252;2022-09-09T06:06:35;126.93;;;109.27;;
17133;SDS011;8682;52.120;5.252;2022-09-09T06:09:06;133.57;;;114.37;;
17133;SDS011;8682;52.120;5.252;2022-09-09T06:11:35;121.13;;;107.73;;
17133;SDS011;8682;52.120;5.252;2022-09-09T06:14:04;122.47;;;110.30;;
17133;SDS011;8682;52.120;5.252;2022-09-09T06:16:31;130.00;;;116.47;;
17133;SDS011;8682;52.120;5.252;2022-09-09T06:18:59;127.13;;;113.90;;
17133;SDS011;8682;52.120;5.252;2022-09-09T06:21:28;132.57;;;118.77;;
17133;SDS011;8682;52.120;5.252;2022-09-09T06:23:56;130.80;;;117.30;;
17133;SDS011;8682;52.120;5.252;2022-09-09T06:26:25;124.50;;;109.70;;
17133;SDS011;8682;52.120;5.252;2022-09-09T06:28:53;143.27;;;128.90;;
17133;SDS011;8682;52.120;5.252;2022-09-09T06:31:22;140.20;;;125.27;;
17133;SDS011;8682;52.120;5.252;2022-09-09T06:33:50;135.53;;;123.43;;
17133;SDS011;8682;52.120;5.252;2022-09-09T06:36:20;135.60;;;122.90;;
17133;SDS011;8682;52.120;5.252;2022-09-09T06:38:49;139.00;;;126.27;;
17133;SDS011;8682;52.120;5.252;2022-09-09T06:41:17;136.93;;;124.30;;
17133;SDS011;8682;52.120;5.252;2022-09-09T06:43:46;153.60;;;139.43;;
17133;SDS011;8682;52.120;5.252;2022-09-09T06:46:14;146.70;;;133.07;;
17133;SDS011;8682;52.120;5.252;2022-09-09T06:48:43;156.47;;;142.43;;
17133;SDS011;8682;52.120;5.252;2022-09-09T06:51:11;148.03;;;135.77;;
17133;SDS011;8682;52.120;5.252;2022-09-09T06:53:40;164.37;;;150.03;;
17133;SDS011;8682;52.120;5.252;2022-09-09T06:56:17;178.27;;;162.80;;
17133;SDS011;8682;52.120;5.252;2022-09-09T06:58:49;150.37;;;135.17;;
17133;SDS011;8682;52.120;5.252;2022-09-09T07:01:18;119.93;;;108.53;;
17133;SDS011;8682;52.120;5.252;2022-09-09T07:03:46;124.03;;;98.33;;
17133;SDS011;8682;52.120;5.252;2022-09-09T07:06:16;142.43;;;107.43;;
17133;SDS011;8682;52.120;5.252;2022-09-09T07:08:47;130.63;;;104.37;;
17133;SDS011;8682;52.120;5.252;2022-09-09T07:11:16;127.17;;;94.00;;
17133;SDS011;8682;52.120;5.252;2022-09-09T07:13:45;132.77;;;90.87;;
17133;SDS011;8682;52.120;5.252;2022-09-09T07:16:14;149.23;;;96.63;;
17133;SDS011;8682;52.120;5.252;2022-09-09T07:18:44;189.43;;;99.23;;
17133;SDS011;8682;52.120;5.252;2022-09-09T07:21:11;120.47;;;70.53;;
17133;SDS011;8682;52.120;5.252;2022-09-09T07:23:39;128.23;;;84.77;;
17133;SDS011;8682;52.120;5.252;2022-09-09T07:26:07;118.70;;;72.67;;
17133;SDS011;8682;52.120;5.252;2022-09-09T07:28:35;104.20;;;70.73;;
17133;SDS011;8682;52.120;5.252;2022-09-09T07:31:03;120.00;;;77.00;;
17133;SDS011;8682;52.120;5.252;2022-09-09T07:33:33;125.27;;;80.83;;
17133;SDS011;8682;52.120;5.252;2022-09-09T07:36:05;119.07;;;70.60;;
17133;SDS011;8682;52.120;5.252;2022-09-09T07:38:37;113.03;;;73.37;;
17133;SDS011;8682;52.120;5.252;2022-09-09T07:41:05;114.53;;;78.57;;
17133;SDS011;8682;52.120;5.252;2022-09-09T07:43:37;96.40;;;67.43;;
17133;SDS011;8682;52.120;5.252;2022-09-09T07:46:04;123.00;;;80.20;;
17133;SDS011;8682;52.120;5.252;2022-09-09T07:48:33;108.60;;;68.50;;
17133;SDS011;8682;52.120;5.252;2022-09-09T07:51:04;104.57;;;74.30;;
17133;SDS011;8682;52.120;5.252;2022-09-09T07:53:33;92.60;;;57.40;;
17133;SDS011;8682;52.120;5.252;2022-09-09T07:56:04;100.63;;;65.50;;
17133;SDS011;8682;52.120;5.252;2022-09-09T07:58:34;101.43;;;60.20;;
17133;SDS011;8682;52.120;5.252;2022-09-09T08:01:05;95.27;;;62.27;;
17133;SDS011;8682;52.120;5.252;2022-09-09T08:03:35;104.50;;;71.17;;
17133;SDS011;8682;52.120;5.252;2022-09-09T08:06:02;97.23;;;65.10;;
17133;SDS011;8682;52.120;5.252;2022-09-09T08:08:31;97.50;;;68.70;;
17133;SDS011;8682;52.120;5.252;2022-09-09T08:11:01;106.63;;;67.17;;
17133;SDS011;8682;52.120;5.252;2022-09-09T08:13:30;101.27;;;64.13;;
17133;SDS011;8682;52.120;5.252;2022-09-09T08:16:03;93.60;;;61.67;;
17133;SDS011;8682;52.120;5.252;2022-09-09T08:18:31;96.63;;;59.33;;
17133;SDS011;8682;52.120;5.252;2022-09-09T08:21:05;96.47;;;60.13;;
17133;SDS011;8682;52.120;5.252;2022-09-09T08:23:34;92.37;;;58.53;;
17133;SDS011;8682;52.120;5.252;2022-09-09T08:26:05;102.47;;;66.07;;
17133;SDS011;8682;52.120;5.252;2022-09-09T08:28:34;99.20;;;60.63;;
17133;SDS011;8682;52.120;5.252;2022-09-09T08:31:07;102.80;;;62.70;;
17133;SDS011;8682;52.120;5.252;2022-09-09T08:33:36;101.83;;;65.57;;
17133;SDS011;8682;52.120;5.252;2022-09-09T08:36:06;100.50;;;67.80;;
17133;SDS011;8682;52.120;5.252;2022-09-09T08:38:35;99.13;;;62.87;;
17133;SDS011;8682;52.120;5.252;2022-09-09T08:44:06;104.10;;;57.60;;
17133;SDS011;8682;52.120;5.252;2022-09-09T08:46:39;107.80;;;69.63;;
17133;SDS011;8682;52.120;5.252;2022-09-09T08:49:17;104.83;;;65.23;;
17133;SDS011;8682;52.120;5.252;2022-09-09T08:51:54;100.27;;;68.23;;
17133;SDS011;8682;52.120;5.252;2022-09-09T08:54:22;109.43;;;61.70;;
17133;SDS011;8682;52.120;5.252;2022-09-09T08:56:49;108.87;;;70.67;;
17133;SDS011;8682;52.120;5.252;2022-09-09T08:59:17;99.53;;;67.97;;
17133;SDS011;8682;52.120;5.252;2022-09-09T09:01:53;97.77;;;67.40;;
17133;SDS011;8682;52.120;5.252;2022-09-09T09:04:34;105.90;;;63.70;;
17133;SDS011;8682;52.120;5.252;2022-09-09T09:07:14;98.00;;;68.90;;
17133;SDS011;8682;52.120;5.252;2022-09-09T09:09:51;101.93;;;66.30;;
17133;SDS011;8682;52.120;5.252;2022-09-09T09:12:25;99.80;;;63.33;;
17133;SDS011;8682;52.120;5.252;2022-09-09T09:14:55;104.13;;;60.57;;
17133;SDS011;8682;52.120;5.252;2022-09-09T09:17:24;97.93;;;66.57;;
17133;SDS011;8682;52.120;5.252;2022-09-09T09:19:56;106.07;;;63.93;;
17133;SDS011;8682;52.120;5.252;2022-09-09T09:22:27;102.67;;;58.30;;
17133;SDS011;8682;52.120;5.252;2022-09-09T09:25:00;101.27;;;66.23;;
17133;SDS011;8682;52.120;5.252;2022-09-09T09:27:32;100.90;;;65.00;;
17133;SDS011;8682;52.120;5.252;2022-09-09T09:30:00;108.67;;;63.77;;
17133;SDS011;8682;52.120;5.252;2022-09-09T09:32:33;90.07;;;55.17;;
17133;SDS011;8682;52.120;5.252;2022-09-09T09:35:02;105.10;;;62.27;;
17133;SDS011;8682;52.120;5.252;2022-09-09T09:37:37;98.73;;;53.57;;
17133;SDS011;8682;52.120;5.252;2022-09-09T09:40:09;114.23;;;69.53;;
17133;SDS011;8682;52.120;5.252;2022-09-09T09:42:37;92.60;;;57.63;;
17133;SDS011;8682;52.120;5.252;2022-09-09T09:45:08;104.20;;;68.67;;
17133;SDS011;8682;52.120;5.252;2022-09-09T09:47:45;114.50;;;75.47;;
17133;SDS011;8682;52.120;5.252;2022-09-09T09:50:16;108.80;;;68.47;;
17133;SDS011;8682;52.120;5.252;2022-09-09T09:52:51;111.77;;;72.93;;
17133;SDS011;8682;52.120;5.252;2022-09-09T09:55:21;90.77;;;63.00;;
17133;SDS011;8682;52.120;5.252;2022-09-09T09:57:49;84.50;;;60.20;;
17133;SDS011;8682;52.120;5.252;2022-09-09T10:00:18;98.17;;;61.93;;
17133;SDS011;8682;52.120;5.252;2022-09-09T10:02:46;99.27;;;67.90;;
17133;SDS011;8682;52.120;5.252;2022-09-09T10:05:14;87.23;;;68.30;;
17133;SDS011;8682;52.120;5.252;2022-09-09T10:07:44;110.17;;;80.63;;
17133;SDS011;8682;52.120;5.252;2022-09-09T10:10:12;101.63;;;75.33;;
17133;SDS011;8682;52.120;5.252;2022-09-09T10:12:49;97.70;;;86.80;;
17133;SDS011;8682;52.120;5.252;2022-09-09T10:15:28;104.73;;;86.23;;
17133;SDS011;8682;52.120;5.252;2022-09-09T10:18:06;101.67;;;89.13;;
17133;SDS011;8682;52.120;5.252;2022-09-09T10:20:45;101.47;;;89.17;;
17133;SDS011;8682;52.120;5.252;2022-09-09T10:23:25;107.30;;;91.87;;
17133;SDS011;8682;52.120;5.252;2022-09-09T10:26:04;121.83;;;102.40;;
17133;SDS011;8682;52.120;5.252;2022-09-09T10:28:45;135.57;;;120.27;;
17133;SDS011;8682;52.120;5.252;2022-09-09T10:31:24;118.83;;;106.57;;
17133;SDS011;8682;52.120;5.252;2022-09-09T10:34:01;117.73;;;105.10;;
17133;SDS011;8682;52.120;5.252;2022-09-09T10:36:38;136.80;;;123.13;;
17133;SDS011;8682;52.120;5.252;2022-09-09T10:39:17;131.13;;;118.40;;
17133;SDS011;8682;52.120;5.252;2022-09-09T10:41:56;123.03;;;111.53;;
17133;SDS011;8682;52.120;5.252;2022-09-09T10:44:36;122.53;;;111.93;;
17133;SDS011;8682;52.120;5.252;2022-09-09T10:50:32;129.83;;;117.57;;
17133;SDS011;8682;52.120;5.252;2022-09-09T10:53:08;153.70;;;136.73;;
17133;SDS011;8682;52.120;5.252;2022-09-09T10:55:50;137.87;;;124.30;;
17133;SDS011;8682;52.120;5.252;2022-09-09T10:58:20;142.07;;;129.27;;
17133;SDS011;8682;52.120;5.252;2022-09-09T11:00:51;136.80;;;124.20;;
17133;SDS011;8682;52.120;5.252;2022-09-09T11:03:22;138.50;;;125.27;;
17133;SDS011;8682;52.120;5.252;2022-09-09T11:05:52;138.53;;;126.30;;
17133;SDS011;8682;52.120;5.252;2022-09-09T11:08:24;127.87;;;115.57;;
17133;SDS011;8682;52.120;5.252;2022-09-09T11:10:55;142.57;;;124.07;;
17133;SDS011;8682;52.120;5.252;2022-09-09T11:13:29;126.13;;;112.67;;
17133;SDS011;8682;52.120;5.252;2022-09-09T11:16:04;109.70;;;97.90;;
17133;SDS011;8682;52.120;5.252;2022-09-09T11:18:39;106.00;;;92.27;;
17133;SDS011;8682;52.120;5.252;2022-09-09T11:21:12;109.90;;;94.70;;
17133;SDS011;8682;52.120;5.252;2022-09-09T11:23:48;105.70;;;87.00;;
17133;SDS011;8682;52.120;5.252;2022-09-09T11:26:23;107.53;;;85.17;;
17133;SDS011;8682;52.120;5.252;2022-09-09T11:28:59;116.23;;;103.20;;
17133;SDS011;8682;52.120;5.252;2022-09-09T11:31:43;115.57;;;94.83;;
17133;SDS011;8682;52.120;5.252;2022-09-09T11:34:19;105.53;;;90.20;;
17133;SDS011;8682;52.120;5.252;2022-09-09T11:37:06;111.20;;;86.67;;
17133;SDS011;8682;52.120;5.252;2022-09-09T11:39:50;101.10;;;88.87;;
17133;SDS011;8682;52.120;5.252;2022-09-09T11:42:27;106.97;;;87.07;;
17133;SDS011;8682;52.120;5.252;2022-09-09T11:44:54;109.83;;;83.27;;
17133;SDS011;8682;52.120;5.252;2022-09-09T11:47:23;105.53;;;77.17;;
17133;SDS011;8682;52.120;5.252;2022-09-09T11:49:54;115.07;;;76.63;;
17133;SDS011;8682;52.120;5.252;2022-09-09T11:52:23;92.63;;;69.77;;
17133;SDS011;8682;52.120;5.252;2022-09-09T11:54:52;96.40;;;71.50;;
17133;SDS011;8682;52.120;5.252;2022-09-09T11:57:25;107.83;;;78.73;;
17133;SDS011;8682;52.120;5.252;2022-09-09T11:59:58;88.77;;;67.40;;
17133;SDS011;8682;52.120;5.252;2022-09-09T12:02:26;87.27;;;69.17;;
17133;SDS011;8682;52.120;5.252;2022-09-09T12:04:56;93.07;;;74.87;;
17133;SDS011;8682;52.120;5.252;2022-09-09T12:07:29;93.23;;;83.73;;
17133;SDS011;8682;52.120;5.252;2022-09-09T12:10:02;92.63;;;82.80;;
17133;SDS011;8682;52.120;5.252;2022-09-09T12:12:32;94.33;;;84.57;;
17133;SDS011;8682;52.120;5.252;2022-09-09T12:15:16;106.63;;;95.10;;
17133;SDS011;8682;52.120;5.252;2022-09-09T12:17:46;129.07;;;117.37;;
17133;SDS011;8682;52.120;5.252;2022-09-09T12:20:15;130.53;;;118.17;;
17133;SDS011;8682;52.120;5.252;2022-09-09T12:22:47;133.93;;;121.10;;
17133;SDS011;8682;52.120;5.252;2022-09-09T12:25:43;129.17;;;116.27;;
17133;SDS011;8682;52.120;5.252;2022-09-09T12:28:23;135.43;;;121.10;;
17133;SDS011;8682;52.120;5.252;2022-09-09T12:31:00;146.77;;;132.87;;
17133;SDS011;8682;52.120;5.252;2022-09-09T12:33:33;151.53;;;138.00;;
17133;SDS011;8682;52.120;5.252;2022-09-09T12:36:00;141.00;;;128.50;;
17133;SDS011;8682;52.120;5.252;2022-09-09T12:38:30;153.37;;;140.33;;
17133;SDS011;8682;52.120;5.252;2022-09-09T12:41:00;135.23;;;123.80;;
17133;SDS011;8682;52.120;5.252;2022-09-09T12:43:27;141.67;;;128.17;;
17133;SDS011;8682;52.120;5.252;2022-09-09T12:45:55;138.47;;;125.73;;
17133;SDS011;8682;52.120;5.252;2022-09-09T12:48:29;146.70;;;134.70;;
17133;SDS011;8682;52.120;5.252;2022-09-09T12:51:00;142.40;;;129.47;;
17133;SDS011;8682;52.120;5.252;2022-09-09T12:53:29;137.50;;;125.43;;
17133;SDS011;8682;52.120;5.252;2022-09-09T12:55:59;110.20;;;100.90;;
17133;SDS011;8682;52.120;5.252;2022-09-09T12:58:28;121.97;;;109.97;;
17133;SDS011;8682;52.120;5.252;2022-09-09T13:00:58;115.10;;;103.87;;
17133;SDS011;8682;52.120;5.252;2022-09-09T13:03:26;110.57;;;98.90;;
17133;SDS011;8682;52.120;5.252;2022-09-09T13:05:57;117.90;;;101.03;;
17133;SDS011;8682;52.120;5.252;2022-09-09T13:08:25;116.50;;;104.87;;
17133;SDS011;8682;52.120;5.252;2022-09-09T13:10:53;92.77;;;81.67;;
17133;SDS011;8682;52.120;5.252;2022-09-09T13:13:26;97.23;;;85.80;;
17133;SDS011;8682;52.120;5.252;2022-09-09T13:15:55;87.07;;;69.87;;
17133;SDS011;8682;52.120;5.252;2022-09-09T13:18:24;100.30;;;82.77;;
17133;SDS011;8682;52.120;5.252;2022-09-09T13:20:55;110.13;;;85.90;;
17133;SDS011;8682;52.120;5.252;2022-09-09T13:23:22;113.03;;;90.53;;
17133;SDS011;8682;52.120;5.252;2022-09-09T13:25:54;94.10;;;76.40;;
17133;SDS011;8682;52.120;5.252;2022-09-09T13:28:23;93.23;;;83.07;;
17133;SDS011;8682;52.120;5.252;2022-09-09T13:30:57;89.87;;;78.63;;
17133;SDS011;8682;52.120;5.252;2022-09-09T13:33:29;96.17;;;79.57;;
17133;SDS011;8682;52.120;5.252;2022-09-09T13:36:00;102.80;;;80.87;;
17133;SDS011;8682;52.120;5.252;2022-09-09T13:38:30;110.70;;;99.93;;
17133;SDS011;8682;52.120;5.252;2022-09-09T13:40:59;108.30;;;97.00;;
17133;SDS011;8682;52.120;5.252;2022-09-09T13:43:29;105.00;;;95.10;;
17133;SDS011;8682;52.120;5.252;2022-09-09T13:45:58;116.43;;;105.17;;
17133;SDS011;8682;52.120;5.252;2022-09-09T13:48:26;124.20;;;113.53;;
17133;SDS011;8682;52.120;5.252;2022-09-09T13:50:59;129.03;;;118.20;;
17133;SDS011;8682;52.120;5.252;2022-09-09T13:53:29;120.00;;;109.30;;
17133;SDS011;8682;52.120;5.252;2022-09-09T13:55:57;112.80;;;103.33;;
17133;SDS011;8682;52.120;5.252;2022-09-09T13:58:26;119.60;;;109.40;;
17133;SDS011;8682;52.120;5.252;2022-09-09T14:00:53;122.13;;;110.90;;
17133;SDS011;8682;52.120;5.252;2022-09-09T14:03:20;131.50;;;119.40;;
17133;SDS011;8682;52.120;5.252;2022-09-09T14:05:47;136.90;;;125.57;;
17133;SDS011;8682;52.120;5.252;2022-09-09T14:08:19;136.00;;;124.17;;
17133;SDS011;8682;52.120;5.252;2022-09-09T14:10:48;135.03;;;122.83;;
17133;SDS011;8682;52.120;5.252;2022-09-09T14:13:15;116.50;;;105.97;;
17133;SDS011;8682;52.120;5.252;2022-09-09T14:15:42;122.67;;;111.27;;
17133;SDS011;8682;52.120;5.252;2022-09-09T14:18:09;136.00;;;123.07;;
17133;SDS011;8682;52.120;5.252;2022-09-09T14:20:38;289.42;;;275.13;;
17133;SDS011;8682;52.120;5.252;2022-09-09T14:23:05;153.50;;;142.67;;
17133;SDS011;8682;52.120;5.252;2022-09-09T14:25:33;128.83;;;119.03;;
17133;SDS011;8682;52.120;5.252;2022-09-09T14:28:00;129.30;;;119.50;;
17133;SDS011;8682;52.120;5.252;2022-09-09T14:30:28;132.23;;;120.97;;
17133;SDS011;8682;52.120;5.252;2022-09-09T14:32:54;136.73;;;125.10;;
17133;SDS011;8682;52.120;5.252;2022-09-09T14:35:21;136.93;;;126.43;;
17133;SDS011;8682;52.120;5.252;2022-09-09T14:37:48;147.40;;;134.87;;
17133;SDS011;8682;52.120;5.252;2022-09-09T14:40:15;139.83;;;127.13;;
17133;SDS011;8682;52.120;5.252;2022-09-09T14:42:43;142.30;;;130.97;;
17133;SDS011;8682;52.120;5.252;2022-09-09T14:45:11;144.20;;;132.43;;